This is the latest recevied weather packets stored in our database for station/object OK1LPD-6. If no packets are shown the sender has not sent any weather packets the latest 10 day(s).
| Time | Temp. | Humidity | Pressure | Rain* | Wind** | Luminosity | Snow |
|---|---|---|---|---|---|---|---|
| 1777889098 | 22.78° C | 33% | 1014.1 hPa | 0 mm | - | - | - |
| 1777888498 | 22.78° C | 33% | 1014.2 hPa | 0 mm | - | - | - |
| 1777887916 | 22.78° C | 34% | 1014.2 hPa | 0 mm | - | - | - |
| 1777887297 | 22.22° C | 35% | 1014.2 hPa | 0 mm | - | - | - |
| 1777886698 | 22.78° C | 34% | 1014.2 hPa | 0 mm | - | - | - |
| 1777886118 | 22.22° C | 38% | 1014.4 hPa | 0 mm | - | - | - |
| 1777885498 | 21.11° C | 42% | 1014.2 hPa | 0 mm | - | - | - |
| 1777884897 | 21.11° C | 42% | 1014.2 hPa | 0 mm | - | - | - |
| 1777884316 | 21.11° C | 43% | 1014 hPa | 0 mm | - | - | - |
| 1777883698 | 21.11° C | 43% | 1013.8 hPa | 0 mm | - | - | - |
| 1777883099 | 21.11° C | 43% | 1013.9 hPa | 0 mm | - | - | - |
| 1777882518 | 21.11° C | 42% | 1014 hPa | 0 mm | - | - | - |
| 1777881898 | 22.78° C | 40% | 1014 hPa | 0 mm | - | - | - |
| 1777881299 | 22.22° C | 43% | 1014.1 hPa | 0 mm | - | - | - |
| 1777880717 | 22.22° C | 43% | 1014.1 hPa | 0 mm | - | - | - |
| 1777880099 | 21.11° C | 44% | 1014.3 hPa | 0 mm | - | - | - |
| 1777879499 | 20.56° C | 44% | 1014.2 hPa | 0 mm | - | - | - |
| 1777878920 | 21.11° C | 43% | 1014.1 hPa | 0 mm | - | - | - |
| 1777878299 | 20.56° C | 44% | 1014.2 hPa | 0 mm | - | - | - |
| 1777877699 | 20.56° C | 45% | 1014.2 hPa | 0 mm | - | - | - |
| 1777877117 | 20.56° C | 48% | 1014.3 hPa | 0 mm | - | - | - |
| 1777876499 | 18.33° C | 52% | 1014.2 hPa | 0 mm | - | - | - |
| 1777875899 | 16.67° C | 59% | 1014.2 hPa | 0 mm | - | - | - |
| 1777875320 | 16.11° C | 62% | 1014.2 hPa | 0 mm | - | - | - |
| 1777874699 | 13.33° C | 68% | 1014.3 hPa | 0 mm | - | - | - |
* Rain latest hour (hover to see other rain measurements)
** Current wind speed in m/s (hover to see current wind gust speed)